Time;durP1;ratioP1;P1;durP2;ratioP2;P2;SDS_P1;SDS_P2;PMS_P1;PMS_P2;Temp;Humidity;BMP_temperature;BMP_pressure;BME280_temperature;BME280_humidity;BME280_pressure;Samples;Min_cycle;Max_cycle;Signal;HPM_P1;HPM_P2
2023/11/08 00:00:53;;;;;;;1.77;1.40;;;8.70;99.90;;;;;;5045295;28;20702;-81
2023/11/08 00:03:20;;;;;;;0.60;0.40;;;8.70;99.90;;;;;;5044241;28;20195;-81
2023/11/08 00:05:47;;;;;;;0.75;0.65;;;8.70;99.90;;;;;;5046900;28;20212;-81
2023/11/08 00:08:14;;;;;;;0.50;0.40;;;8.70;99.90;;;;;;5048054;28;20588;-81
2023/11/08 00:10:41;;;;;;;0.80;0.80;;;8.70;99.90;;;;;;5046535;28;20225;-81
2023/11/08 00:13:09;;;;;;;1.17;0.63;;;8.70;99.90;;;;;;5044730;28;20195;-81
2023/11/08 00:15:36;;;;;;;0.80;0.50;;;8.70;99.90;;;;;;5045502;28;20192;-81
2023/11/08 00:18:03;;;;;;;1.50;0.73;;;8.80;99.90;;;;;;5048348;28;20214;-82
2023/11/08 00:20:29;;;;;;;0.50;0.40;;;8.70;99.90;;;;;;5048539;28;20593;-82
2023/11/08 00:22:57;;;;;;;0.75;0.68;;;8.80;99.90;;;;;;5036769;28;20219;-81
2023/11/08 00:25:24;;;;;;;0.55;0.50;;;8.80;99.90;;;;;;5052034;28;20207;-81
2023/11/08 00:27:51;;;;;;;1.30;1.30;;;8.80;99.90;;;;;;5045941;28;20199;-81
2023/11/08 00:30:19;;;;;;;1.20;1.10;;;8.80;99.90;;;;;;5047024;28;20192;-82
2023/11/08 00:32:46;;;;;;;0.70;0.70;;;8.80;99.90;;;;;;5049104;28;20192;-81
2023/11/08 00:35:13;;;;;;;0.50;0.40;;;8.80;99.90;;;;;;5050186;28;20254;-81
2023/11/08 00:37:40;;;;;;;0.80;0.70;;;8.80;99.90;;;;;;5046451;28;20195;-80
2023/11/08 00:40:08;;;;;;;2.97;0.60;;;8.80;99.90;;;;;;5044824;28;20271;-81
2023/11/08 00:42:35;;;;;;;0.50;0.40;;;8.80;99.90;;;;;;5044428;28;20691;-81
2023/11/08 00:45:02;;;;;;;0.93;0.50;;;8.80;99.90;;;;;;5047582;28;20211;-81
2023/11/08 00:47:30;;;;;;;0.50;0.47;;;8.80;99.90;;;;;;5048622;28;20198;-81
2023/11/08 00:49:57;;;;;;;0.50;0.40;;;8.80;99.90;;;;;;5047541;28;20231;-81
2023/11/08 00:52:24;;;;;;;0.80;0.57;;;8.80;99.90;;;;;;5046871;28;20219;-81
2023/11/08 00:54:51;;;;;;;0.90;0.88;;;8.80;99.90;;;;;;5044986;28;20195;-81
2023/11/08 00:57:18;;;;;;;1.75;0.82;;;8.80;99.90;;;;;;5043988;28;20234;-81
2023/11/08 00:59:44;;;;;;;0.80;0.80;;;8.80;99.90;;;;;;5045725;28;20191;-81
2023/11/08 01:02:11;;;;;;;0.50;0.40;;;8.70;99.90;;;;;;5047713;28;20223;-81
2023/11/08 01:04:39;;;;;;;0.90;0.60;;;8.70;99.90;;;;;;5038459;28;20196;-81
2023/11/08 01:07:06;;;;;;;2.08;0.90;;;8.70;99.90;;;;;;5047244;28;20195;-81
2023/11/08 01:09:33;;;;;;;0.65;0.65;;;8.60;99.90;;;;;;5047382;28;20195;-81
2023/11/08 01:12:03;;;;;;;0.50;0.40;;;8.60;99.90;;;;;;5043702;28;20215;-80
2023/11/08 01:14:29;;;;;;;0.60;0.50;;;8.60;99.90;;;;;;5043306;28;20266;-81
2023/11/08 01:16:56;;;;;;;0.95;0.77;;;8.50;99.90;;;;;;5046045;28;20195;-81
2023/11/08 01:19:24;;;;;;;0.50;0.50;;;8.60;99.90;;;;;;5048773;28;20199;-80
2023/11/08 01:21:53;;;;;;;0.88;0.50;;;8.50;99.90;;;;;;5047086;28;20223;-81
2023/11/08 01:24:19;;;;;;;0.50;0.40;;;8.50;99.90;;;;;;5043580;28;20199;-81
2023/11/08 01:26:46;;;;;;;4.85;0.77;;;8.50;99.90;;;;;;5045219;28;20212;-81
2023/11/08 01:29:13;;;;;;;0.50;0.50;;;8.50;99.90;;;;;;5046584;28;20205;-81
2023/11/08 01:31:40;;;;;;;0.60;0.45;;;8.50;99.90;;;;;;5046100;28;20229;-81
2023/11/08 01:34:07;;;;;;;0.60;0.60;;;8.50;99.90;;;;;;5043452;28;20222;-82
2023/11/08 01:36:34;;;;;;;2.00;1.15;;;8.50;99.90;;;;;;5043660;28;20202;-82
2023/11/08 01:39:03;;;;;;;2.70;1.38;;;8.50;99.90;;;;;;5047046;28;20234;-82
2023/11/08 01:41:29;;;;;;;2.45;2.08;;;8.50;99.90;;;;;;5046900;28;20309;-81
2023/11/08 01:44:00;;;;;;;0.50;0.50;;;8.50;99.90;;;;;;5044151;28;20200;-81
2023/11/08 01:46:27;;;;;;;0.50;0.40;;;8.50;99.90;;;;;;5042815;28;20211;-82
2023/11/08 01:48:54;;;;;;;0.50;0.40;;;8.50;99.90;;;;;;5044928;28;20199;-81
2023/11/08 01:51:22;;;;;;;0.50;0.40;;;8.50;99.90;;;;;;5046631;28;20629;-81
2023/11/08 01:53:52;;;;;;;0.50;0.40;;;8.50;99.90;;;;;;5044239;28;20207;-81
2023/11/08 01:56:20;;;;;;;1.30;0.50;;;8.50;99.90;;;;;;5043108;28;20192;-81
2023/11/08 01:58:51;;;;;;;0.60;0.55;;;8.50;99.90;;;;;;5051308;28;20199;-82
2023/11/08 02:01:18;;;;;;;0.60;0.60;;;8.50;99.90;;;;;;5045814;28;20212;-82
2023/11/08 02:03:47;;;;;;;0.50;0.40;;;8.50;99.90;;;;;;5045885;28;20254;-81
2023/11/08 02:06:15;;;;;;;0.85;0.85;;;8.50;99.90;;;;;;5046203;28;20298;-81
2023/11/08 02:08:42;;;;;;;2.17;1.23;;;8.50;99.90;;;;;;5045911;28;20591;-81
2023/11/08 02:11:09;;;;;;;2.38;1.48;;;8.50;99.90;;;;;;5042676;28;20219;-81
2023/11/08 02:13:38;;;;;;;0.60;0.40;;;8.50;99.90;;;;;;5042904;28;20571;-81
2023/11/08 02:16:05;;;;;;;0.80;0.50;;;8.50;99.90;;;;;;5046165;28;20199;-81
2023/11/08 02:18:32;;;;;;;0.70;0.50;;;8.50;99.90;;;;;;5046007;28;20198;-81
2023/11/08 02:20:59;;;;;;;0.50;0.40;;;8.50;99.90;;;;;;5045780;28;20220;-82
2023/11/08 02:23:27;;;;;;;1.25;0.60;;;8.50;99.90;;;;;;5046021;28;20194;-81
2023/11/08 02:25:56;;;;;;;0.50;0.40;;;8.50;99.90;;;;;;5043886;28;20211;-81
2023/11/08 02:28:23;;;;;;;0.85;0.50;;;8.50;99.90;;;;;;5042384;28;20671;-81
2023/11/08 02:30:53;;;;;;;1.48;1.38;;;8.50;99.90;;;;;;5043539;28;20223;-81
2023/11/08 02:33:20;;;;;;;0.50;0.50;;;8.40;99.90;;;;;;5045962;28;20249;-81
2023/11/08 02:35:46;;;;;;;0.50;0.50;;;8.40;99.90;;;;;;5044958;28;20191;-81
2023/11/08 02:38:14;;;;;;;0.60;0.60;;;8.40;99.90;;;;;;5042105;28;20199;-81
2023/11/08 02:40:41;;;;;;;1.38;0.80;;;8.40;99.90;;;;;;5042755;28;20212;-81
2023/11/08 02:43:09;;;;;;;3.63;1.30;;;8.40;99.90;;;;;;5046044;28;20195;-81
2023/11/08 02:45:36;;;;;;;0.50;0.50;;;8.30;99.90;;;;;;5046272;28;20241;-80
2023/11/08 02:48:05;;;;;;;0.50;0.40;;;8.30;99.90;;;;;;5042963;28;20663;-81
2023/11/08 02:50:33;;;;;;;2.72;1.35;;;8.30;99.90;;;;;;5042380;28;20225;-81
2023/11/08 02:53:00;;;;;;;1.80;0.75;;;8.30;99.90;;;;;;5043590;28;20211;-81
2023/11/08 02:55:27;;;;;;;0.88;0.88;;;8.30;99.90;;;;;;5045941;28;20202;-81
2023/11/08 02:57:54;;;;;;;0.73;0.70;;;8.20;99.90;;;;;;5044110;28;20199;-81
2023/11/08 03:00:22;;;;;;;0.80;0.50;;;8.20;99.90;;;;;;5045266;28;20199;-81
2023/11/08 03:02:51;;;;;;;0.60;0.60;;;8.20;99.90;;;;;;5046973;28;20211;-81
2023/11/08 03:05:21;;;;;;;0.50;0.50;;;8.30;99.90;;;;;;5056447;28;20709;-80
2023/11/08 03:07:48;;;;;;;0.50;0.40;;;8.30;99.90;;;;;;5056139;28;20196;-82
2023/11/08 03:10:17;;;;;;;0.50;0.50;;;8.30;99.90;;;;;;5055290;28;20192;-81
2023/11/08 03:12:45;;;;;;;3.35;0.95;;;8.10;99.90;;;;;;5054698;28;20238;-82
2023/11/08 03:15:12;;;;;;;0.50;0.40;;;8.10;99.90;;;;;;5055191;28;20215;-82
2023/11/08 03:17:41;;;;;;;3.55;0.90;;;8.10;99.90;;;;;;5053817;28;20196;-82
2023/11/08 03:20:09;;;;;;;0.50;0.45;;;8.00;99.90;;;;;;5057433;28;20195;-82
2023/11/08 03:22:37;;;;;;;0.75;0.75;;;8.00;99.90;;;;;;5058146;28;20226;-82
2023/11/08 03:25:04;;;;;;;0.50;0.40;;;8.00;99.90;;;;;;5052640;28;20203;-82
2023/11/08 03:27:31;;;;;;;3.50;0.82;;;8.00;99.90;;;;;;5056816;28;20225;-82
2023/11/08 03:29:58;;;;;;;0.50;0.40;;;8.00;99.90;;;;;;5053481;28;20572;-82
2023/11/08 03:32:27;;;;;;;0.50;0.40;;;8.00;99.90;;;;;;5051563;28;20251;-82
2023/11/08 03:34:55;;;;;;;0.50;0.40;;;8.00;99.90;;;;;;5055504;28;20291;-82
2023/11/08 03:37:23;;;;;;;0.80;0.80;;;8.00;99.90;;;;;;5060866;28;20195;-81
2023/11/08 03:39:50;;;;;;;0.50;0.50;;;8.00;99.90;;;;;;5055512;28;20252;-82
2023/11/08 03:42:17;;;;;;;0.50;0.40;;;8.00;99.90;;;;;;5055750;28;20222;-81
2023/11/08 03:44:44;;;;;;;0.50;0.40;;;8.00;99.90;;;;;;5055006;28;20211;-82
2023/11/08 03:47:11;;;;;;;0.50;0.40;;;8.10;99.90;;;;;;5059524;28;20717;-83
2023/11/08 03:49:37;;;;;;;0.50;0.40;;;8.10;99.90;;;;;;5061900;28;20219;-82
2023/11/08 03:52:05;;;;;;;0.50;0.40;;;8.10;99.90;;;;;;5057784;28;20229;-81
2023/11/08 03:54:33;;;;;;;0.68;0.68;;;8.10;99.90;;;;;;5055605;28;20206;-80
2023/11/08 03:57:00;;;;;;;0.50;0.40;;;8.20;99.90;;;;;;5056354;28;20618;-82
2023/11/08 03:59:27;;;;;;;0.50;0.40;;;8.10;99.90;;;;;;5056807;28;20571;-80
2023/11/08 04:01:54;;;;;;;1.30;0.90;;;8.10;99.90;;;;;;5055252;28;20219;-82
2023/11/08 04:04:21;;;;;;;2.65;2.45;;;8.10;99.90;;;;;;5054186;28;20196;-81
2023/11/08 04:06:48;;;;;;;0.80;0.80;;;8.20;99.90;;;;;;5046324;28;20212;-81
2023/11/08 04:09:16;;;;;;;0.50;0.40;;;8.20;99.90;;;;;;5044872;28;20196;-82
2023/11/08 04:11:43;;;;;;;0.77;0.60;;;8.20;99.90;;;;;;5044546;28;20307;-82
2023/11/08 04:14:10;;;;;;;0.60;0.60;;;8.20;99.90;;;;;;5047810;28;20206;-82
2023/11/08 04:16:39;;;;;;;1.77;0.50;;;8.20;99.90;;;;;;5049684;28;20199;-82
2023/11/08 04:19:06;;;;;;;0.50;0.40;;;8.20;99.90;;;;;;5049048;28;20277;-82
2023/11/08 04:21:33;;;;;;;4.00;1.40;;;8.20;99.90;;;;;;5049634;28;20219;-82
2023/11/08 04:23:59;;;;;;;0.85;0.85;;;8.20;99.90;;;;;;5048419;28;20191;-81
2023/11/08 04:26:29;;;;;;;0.50;0.40;;;8.20;99.90;;;;;;5051433;28;20218;-82
2023/11/08 04:28:58;;;;;;;0.70;0.70;;;8.20;99.90;;;;;;5049600;28;20205;-83
2023/11/08 04:31:24;;;;;;;0.60;0.60;;;8.20;99.90;;;;;;5047489;28;20721;-83
2023/11/08 04:33:51;;;;;;;0.65;0.50;;;8.20;99.90;;;;;;5042701;28;20545;-82
2023/11/08 04:36:18;;;;;;;0.80;0.60;;;8.20;99.90;;;;;;5045192;28;20191;-82
2023/11/08 04:38:45;;;;;;;0.50;0.50;;;8.20;99.90;;;;;;5046084;28;20570;-81
2023/11/08 04:41:14;;;;;;;0.95;0.85;;;8.20;99.90;;;;;;5043356;28;20219;-82
2023/11/08 04:43:43;;;;;;;0.80;0.70;;;8.20;99.90;;;;;;5042784;28;20195;-82
2023/11/08 04:46:10;;;;;;;0.60;0.60;;;8.20;99.90;;;;;;5044094;28;20226;-82
2023/11/08 04:48:37;;;;;;;0.70;0.43;;;8.10;99.90;;;;;;5046680;28;20210;-81
2023/11/08 04:51:05;;;;;;;0.50;0.40;;;8.20;99.90;;;;;;5045916;28;20218;-82
2023/11/08 04:53:32;;;;;;;0.98;0.80;;;8.20;99.90;;;;;;5038491;28;20199;-81
2023/11/08 04:55:58;;;;;;;4.13;0.75;;;8.20;99.90;;;;;;5046433;28;20206;-81
2023/11/08 04:58:25;;;;;;;0.50;0.40;;;8.10;99.90;;;;;;5042384;28;20196;-79
2023/11/08 05:00:53;;;;;;;0.50;0.40;;;8.10;99.90;;;;;;5041887;28;20707;-80
2023/11/08 05:03:20;;;;;;;0.50;0.50;;;8.10;99.90;;;;;;5045046;28;20655;-81
2023/11/08 05:05:47;;;;;;;4.20;0.93;;;8.10;99.90;;;;;;5045338;28;20666;-82
2023/11/08 05:08:14;;;;;;;0.50;0.50;;;8.10;99.90;;;;;;5042590;28;20205;-81
2023/11/08 05:10:40;;;;;;;0.50;0.50;;;8.10;99.90;;;;;;5042556;28;20216;-82
2023/11/08 05:13:07;;;;;;;0.50;0.40;;;8.10;99.90;;;;;;5043068;28;20211;-82
2023/11/08 05:15:34;;;;;;;0.50;0.40;;;8.00;99.90;;;;;;5045478;28;20199;-81
2023/11/08 05:18:02;;;;;;;0.70;0.60;;;8.00;99.90;;;;;;5045453;28;20205;-81
2023/11/08 05:20:29;;;;;;;2.08;0.60;;;8.00;99.90;;;;;;5045772;28;20229;-81
2023/11/08 05:22:56;;;;;;;0.50;0.40;;;7.90;99.90;;;;;;5037067;28;20231;-82
2023/11/08 05:25:23;;;;;;;0.50;0.40;;;7.90;99.90;;;;;;5045703;28;20203;-82
2023/11/08 05:27:52;;;;;;;0.60;0.52;;;7.90;99.90;;;;;;5044738;28;20258;-82
2023/11/08 05:30:19;;;;;;;0.50;0.40;;;7.80;99.90;;;;;;5042246;28;20253;-82
2023/11/08 05:32:46;;;;;;;0.50;0.50;;;7.80;99.90;;;;;;5042685;28;20199;-79
2023/11/08 05:35:14;;;;;;;0.50;0.50;;;7.70;99.90;;;;;;5044528;28;20203;-83
2023/11/08 05:37:43;;;;;;;3.60;0.60;;;7.70;99.90;;;;;;5045473;28;20191;-81
2023/11/08 05:40:12;;;;;;;0.90;0.60;;;7.60;99.90;;;;;;5045717;28;20196;-82
2023/11/08 05:42:39;;;;;;;0.50;0.50;;;7.60;99.90;;;;;;5048476;28;20198;-82
2023/11/08 05:45:07;;;;;;;0.50;0.40;;;7.60;99.90;;;;;;5047180;28;20199;-83
2023/11/08 05:47:34;;;;;;;0.50;0.40;;;7.50;99.90;;;;;;5046887;28;20217;-83
2023/11/08 05:50:01;;;;;;;0.50;0.40;;;7.50;99.90;;;;;;5045411;28;20214;-83
2023/11/08 05:52:29;;;;;;;1.58;1.48;;;7.50;99.90;;;;;;5035130;28;20218;-82
2023/11/08 05:54:56;;;;;;;0.50;0.50;;;7.40;99.90;;;;;;5043260;28;20196;-83
2023/11/08 05:57:23;;;;;;;0.50;0.50;;;7.40;99.90;;;;;;5042481;28;20200;-80
2023/11/08 05:59:50;;;;;;;0.50;0.40;;;7.40;99.90;;;;;;5043220;28;20199;-82
2023/11/08 06:02:17;;;;;;;0.70;0.50;;;7.30;99.90;;;;;;5045200;28;20223;-80
2023/11/08 06:04:44;;;;;;;0.50;0.40;;;7.30;99.90;;;;;;5046700;28;20199;-82
2023/11/08 06:07:10;;;;;;;0.50;0.40;;;7.30;99.90;;;;;;5044690;28;20220;-82
2023/11/08 06:09:38;;;;;;;0.50;0.40;;;7.30;99.90;;;;;;5045917;28;20674;-82
2023/11/08 06:12:06;;;;;;;0.50;0.50;;;7.30;99.90;;;;;;5047008;28;20219;-83
2023/11/08 06:14:33;;;;;;;0.60;0.50;;;7.30;99.90;;;;;;5045060;28;20275;-82
2023/11/08 06:17:00;;;;;;;0.50;0.40;;;7.30;99.90;;;;;;5042944;28;20196;-82
2023/11/08 06:19:28;;;;;;;0.50;0.40;;;7.30;99.90;;;;;;5053455;28;20191;-80
2023/11/08 06:21:54;;;;;;;1.05;0.60;;;7.30;99.90;;;;;;5052059;28;20223;-82
2023/11/08 06:24:21;;;;;;;1.70;0.80;;;7.30;99.90;;;;;;5051712;28;20203;-82
2023/11/08 06:26:50;;;;;;;0.70;0.50;;;7.30;99.90;;;;;;5051191;28;20222;-81
2023/11/08 06:29:17;;;;;;;0.50;0.50;;;7.30;99.90;;;;;;5047810;28;20226;-81
2023/11/08 06:31:43;;;;;;;0.50;0.45;;;7.30;99.90;;;;;;5051592;28;20231;-81
2023/11/08 06:34:10;;;;;;;0.60;0.50;;;7.30;99.90;;;;;;5053368;28;20194;-82
2023/11/08 06:36:37;;;;;;;1.80;0.70;;;7.30;99.90;;;;;;5051823;28;20496;-81
2023/11/08 06:39:04;;;;;;;1.85;0.60;;;7.30;99.90;;;;;;5052389;28;20206;-80
2023/11/08 06:41:31;;;;;;;0.50;0.40;;;7.30;99.90;;;;;;5055677;28;20215;-82
2023/11/08 06:43:59;;;;;;;0.68;0.68;;;7.40;99.90;;;;;;5055957;28;20206;-82
2023/11/08 06:46:26;;;;;;;0.50;0.50;;;7.40;99.90;;;;;;5054969;28;20210;-82
2023/11/08 06:48:54;;;;;;;0.50;0.50;;;7.40;99.90;;;;;;5057203;28;20219;-83
2023/11/08 06:51:22;;;;;;;0.60;0.60;;;7.40;99.90;;;;;;5057894;28;20220;-82
2023/11/08 06:53:49;;;;;;;1.08;0.60;;;7.40;99.90;;;;;;5052143;28;20203;-82
2023/11/08 06:56:16;;;;;;;0.77;0.73;;;7.40;99.90;;;;;;5053147;28;20196;-81
2023/11/08 06:58:43;;;;;;;2.22;1.30;;;7.40;99.90;;;;;;5048110;28;20191;-81
2023/11/08 07:01:12;;;;;;;0.50;0.40;;;7.50;99.90;;;;;;5056190;28;20215;-82
2023/11/08 07:03:38;;;;;;;0.60;0.60;;;7.50;99.90;;;;;;5051997;28;20203;-80
2023/11/08 07:06:05;;;;;;;0.60;0.60;;;7.50;99.90;;;;;;5058546;28;20235;-81
2023/11/08 07:08:33;;;;;;;0.50;0.40;;;7.50;99.90;;;;;;5055406;28;20217;-81
2023/11/08 07:11:00;;;;;;;0.50;0.40;;;7.50;99.90;;;;;;5061551;28;20250;-82
2023/11/08 07:13:27;;;;;;;0.50;0.40;;;7.50;99.90;;;;;;5059617;28;20268;-82
2023/11/08 07:15:54;;;;;;;0.50;0.40;;;7.50;99.90;;;;;;5065339;28;20241;-80
2023/11/08 07:18:22;;;;;;;0.50;0.40;;;7.60;99.90;;;;;;5060772;28;20196;-81
2023/11/08 07:20:50;;;;;;;0.50;0.50;;;7.60;99.90;;;;;;5056268;28;20643;-81
2023/11/08 07:23:17;;;;;;;7.28;0.88;;;7.60;99.90;;;;;;5053449;28;20230;-82
2023/11/08 07:25:43;;;;;;;0.63;0.63;;;7.70;99.90;;;;;;5060699;28;20199;-84
2023/11/08 07:28:10;;;;;;;0.50;0.40;;;8.00;99.90;;;;;;5061341;28;20242;-83
2023/11/08 07:30:38;;;;;;;0.60;0.60;;;8.40;99.90;;;;;;5057100;28;20218;-81
2023/11/08 07:33:05;;;;;;;4.22;1.20;;;8.60;99.90;;;;;;5056335;28;20776;-82
2023/11/08 07:35:33;;;;;;;2.58;1.67;;;8.60;99.90;;;;;;5062272;28;20299;-82
2023/11/08 07:38:00;;;;;;;0.50;0.40;;;8.80;99.90;;;;;;5055661;28;20206;-81
2023/11/08 07:40:27;;;;;;;1.83;1.10;;;9.20;99.90;;;;;;5056081;28;20219;-82
2023/11/08 07:42:54;;;;;;;0.80;0.70;;;9.50;99.90;;;;;;5055093;28;20215;-81
2023/11/08 07:45:21;;;;;;;0.50;0.40;;;9.60;99.90;;;;;;5054982;28;20567;-80
2023/11/08 07:47:48;;;;;;;0.50;0.40;;;9.60;99.90;;;;;;5053881;28;20219;-81
2023/11/08 07:50:16;;;;;;;0.93;0.93;;;9.50;99.90;;;;;;5053981;28;20238;-79
2023/11/08 07:52:44;;;;;;;0.50;0.50;;;9.40;99.90;;;;;;5052480;28;20203;-81
2023/11/08 07:55:12;;;;;;;0.95;0.95;;;9.30;99.90;;;;;;5061488;28;20286;-82
2023/11/08 07:57:40;;;;;;;0.50;0.40;;;9.10;99.90;;;;;;5042572;28;20713;-80
2023/11/08 08:00:14;;;;;;;1.27;1.17;;;8.90;99.90;;;;;;5049002;28;20206;-81
2023/11/08 08:02:41;;;;;;;1.35;0.50;;;8.90;99.90;;;;;;5037737;28;20255;-80
2023/11/08 08:05:10;;;;;;;2.25;0.80;;;9.10;99.90;;;;;;5081316;22;20238;-81
2023/11/08 08:07:36;;;;;;;0.60;0.60;;;9.30;99.90;;;;;;5081067;28;20210;-79
2023/11/08 08:10:06;;;;;;;4.50;0.95;;;9.60;99.90;;;;;;5082057;28;20216;-80
2023/11/08 08:12:33;;;;;;;0.50;0.40;;;10.00;99.90;;;;;;5082829;28;20573;-82
2023/11/08 08:15:00;;;;;;;0.50;0.40;;;10.30;99.90;;;;;;5084104;28;20218;-82
2023/11/08 08:17:27;;;;;;;0.50;0.40;;;10.60;99.90;;;;;;5066759;28;20811;-80
2023/11/08 08:19:55;;;;;;;2.45;1.27;;;10.20;99.90;;;;;;5082367;28;20202;-80
2023/11/08 08:22:23;;;;;;;0.50;0.40;;;10.00;99.90;;;;;;5066369;28;20222;-81
2023/11/08 08:24:50;;;;;;;0.50;0.40;;;10.40;99.90;;;;;;5079391;28;20537;-80
2023/11/08 08:27:18;;;;;;;0.87;0.60;;;11.20;99.90;;;;;;5063612;28;20221;-79
2023/11/08 08:29:46;;;;;;;0.50;0.40;;;11.50;99.90;;;;;;5072039;28;20940;-81
2023/11/08 08:32:12;;;;;;;0.90;0.70;;;11.80;99.90;;;;;;5071676;28;20441;-81
2023/11/08 08:34:39;;;;;;;1.43;1.33;;;12.20;99.90;;;;;;5083394;28;20980;-82
2023/11/08 08:37:06;;;;;;;0.77;0.77;;;12.60;99.90;;;;;;5077141;28;20994;-80
2023/11/08 08:39:33;;;;;;;0.50;0.40;;;13.10;99.90;;;;;;5072491;28;20434;-82
2023/11/08 08:42:01;;;;;;;0.80;0.80;;;13.10;99.90;;;;;;5064229;28;20528;-81
2023/11/08 08:44:30;;;;;;;4.00;0.80;;;13.10;99.90;;;;;;5073995;28;20496;-82
2023/11/08 08:46:57;;;;;;;4.20;3.90;;;13.20;99.90;;;;;;5084635;28;20494;-81
2023/11/08 08:49:24;;;;;;;1.73;1.27;;;12.80;99.90;;;;;;5082886;28;20527;-82
2023/11/08 08:51:51;;;;;;;0.63;0.63;;;12.70;99.90;;;;;;5083491;28;20451;-82
2023/11/08 08:54:18;;;;;;;3.20;2.30;;;12.40;99.90;;;;;;5074892;28;20949;-81
2023/11/08 08:56:47;;;;;;;0.80;0.80;;;12.30;99.90;;;;;;5074785;28;20467;-81
2023/11/08 08:59:13;;;;;;;1.40;1.37;;;12.20;99.90;;;;;;5075959;28;20796;-81
2023/11/08 09:01:42;;;;;;;0.60;0.43;;;12.10;99.90;;;;;;5080612;28;20436;-82
2023/11/08 09:04:08;;;;;;;1.93;0.80;;;11.90;99.90;;;;;;5069662;28;20916;-82
2023/11/08 09:06:35;;;;;;;0.50;0.50;;;11.40;99.90;;;;;;5063865;28;21014;-82
2023/11/08 09:09:03;;;;;;;1.13;0.60;;;11.00;99.90;;;;;;5070298;28;20477;-82
2023/11/08 09:11:30;;;;;;;4.28;0.60;;;10.80;99.90;;;;;;5070759;28;20471;-82
2023/11/08 09:13:56;;;;;;;2.20;1.10;;;10.60;99.90;;;;;;5067604;28;20195;-82
2023/11/08 09:16:23;;;;;;;1.02;0.65;;;10.70;99.90;;;;;;5065421;28;20477;-82
2023/11/08 09:18:51;;;;;;;0.63;0.63;;;10.70;99.90;;;;;;5062994;28;20222;-81
2023/11/08 09:21:20;;;;;;;1.00;0.70;;;10.60;99.90;;;;;;5070850;28;20464;-81
2023/11/08 09:23:47;;;;;;;16.20;2.38;;;10.60;99.90;;;;;;5065211;28;20452;-81
2023/11/08 09:26:17;;;;;;;4.63;1.15;;;10.40;99.90;;;;;;5064788;28;20214;-81
2023/11/08 09:28:43;;;;;;;0.50;0.40;;;10.30;99.90;;;;;;5064436;28;20222;-81
2023/11/08 09:31:11;;;;;;;0.50;0.40;;;10.30;99.90;;;;;;5065951;28;20195;-80
2023/11/08 09:33:38;;;;;;;0.50;0.40;;;10.70;99.90;;;;;;5061387;28;20442;-82
2023/11/08 09:36:07;;;;;;;0.50;0.40;;;11.00;99.90;;;;;;5060416;28;20456;-83
2023/11/08 09:38:34;;;;;;;1.30;0.73;;;11.30;99.90;;;;;;5062388;28;20441;-82
2023/11/08 09:41:01;;;;;;;0.60;0.50;;;11.40;99.90;;;;;;5074562;28;20429;-83
2023/11/08 09:43:29;;;;;;;1.13;0.73;;;11.40;99.90;;;;;;5061600;28;20816;-80
2023/11/08 09:45:57;;;;;;;1.00;0.77;;;11.80;99.90;;;;;;5072111;28;20457;-82
2023/11/08 09:48:24;;;;;;;0.50;0.40;;;12.00;99.90;;;;;;5072387;28;20496;-80
2023/11/08 09:50:51;;;;;;;1.30;0.97;;;12.20;99.90;;;;;;5077408;28;20441;-82
2023/11/08 09:53:20;;;;;;;1.63;1.53;;;12.30;99.90;;;;;;5076848;28;21015;-81
2023/11/08 09:55:48;;;;;;;0.50;0.40;;;12.30;99.90;;;;;;5072209;28;20520;-81
2023/11/08 09:58:16;;;;;;;1.00;1.00;;;12.20;99.90;;;;;;5071922;28;20464;-83
2023/11/08 10:00:45;;;;;;;1.80;1.23;;;12.00;99.90;;;;;;5061933;28;20441;-81
2023/11/08 10:03:14;;;;;;;0.50;0.40;;;11.70;99.90;;;;;;5060786;28;20522;-82
2023/11/08 10:05:44;;;;;;;0.60;0.50;;;11.60;99.90;;;;;;5068909;28;20465;-81
2023/11/08 10:08:11;;;;;;;0.87;0.87;;;11.50;99.90;;;;;;5074785;28;21007;-80
2023/11/08 10:10:42;;;;;;;0.60;0.60;;;11.40;99.90;;;;;;5078362;28;20437;-80
2023/11/08 10:13:09;;;;;;;14.93;1.53;;;11.50;99.90;;;;;;5060005;28;20434;-82
2023/11/08 10:15:36;;;;;;;0.50;0.40;;;11.40;99.90;;;;;;5069691;28;20452;-81
2023/11/08 10:18:03;;;;;;;12.30;1.40;;;11.40;99.90;;;;;;5066115;28;20610;-81
2023/11/08 10:20:34;;;;;;;0.50;0.40;;;11.40;99.90;;;;;;5068285;28;20440;-79
2023/11/08 10:23:01;;;;;;;1.23;0.63;;;11.50;99.90;;;;;;5060056;28;20430;-82
2023/11/08 10:25:29;;;;;;;0.77;0.60;;;11.70;99.90;;;;;;5068618;28;20467;-82
2023/11/08 10:28:05;;;;;;;0.50;0.40;;;11.80;99.90;;;;;;5080229;28;20473;-81
2023/11/08 10:30:36;;;;;;;0.50;0.40;;;12.00;99.90;;;;;;5072292;28;20451;-81
2023/11/08 10:33:09;;;;;;;0.57;0.53;;;12.20;99.90;;;;;;5066585;28;20444;-82
2023/11/08 10:35:39;;;;;;;0.60;0.50;;;12.00;99.90;;;;;;5073359;28;20528;-81
2023/11/08 10:38:06;;;;;;;0.50;0.40;;;12.00;99.90;;;;;;5075809;28;20613;-82
2023/11/08 10:40:34;;;;;;;0.70;0.43;;;12.20;99.90;;;;;;5070085;28;20549;-82
2023/11/08 10:43:02;;;;;;;0.60;0.60;;;12.40;99.90;;;;;;5074924;28;20429;-82
2023/11/08 10:45:32;;;;;;;1.17;0.73;;;12.30;99.90;;;;;;5065121;28;20449;-80
2023/11/08 10:47:59;;;;;;;0.50;0.50;;;12.10;99.90;;;;;;5061829;28;20511;-81
2023/11/08 10:50:27;;;;;;;1.07;0.80;;;12.00;99.90;;;;;;5068655;28;20443;-81
2023/11/08 10:52:54;;;;;;;2.10;0.93;;;12.00;99.90;;;;;;5060676;28;20493;-81
2023/11/08 10:55:25;;;;;;;8.27;0.87;;;11.80;99.90;;;;;;5061275;28;20929;-82
2023/11/08 10:57:53;;;;;;;3.17;0.90;;;11.80;99.90;;;;;;5068877;28;20438;-82
2023/11/08 11:00:22;;;;;;;2.80;0.97;;;11.70;99.90;;;;;;5068889;28;20434;-80
2023/11/08 11:02:53;;;;;;;0.60;0.50;;;11.70;99.90;;;;;;5079531;28;20451;-80
2023/11/08 11:05:23;;;;;;;0.50;0.40;;;11.70;99.90;;;;;;5072084;28;20567;-81
2023/11/08 11:07:52;;;;;;;1.63;0.87;;;11.80;99.90;;;;;;5074801;28;20452;-82
2023/11/08 11:10:20;;;;;;;0.70;0.50;;;11.80;99.90;;;;;;5075025;28;20516;-81
2023/11/08 11:12:57;;;;;;;1.27;0.77;;;11.80;99.90;;;;;;5079449;28;20520;-82
2023/11/08 11:15:33;;;;;;;1.00;0.57;;;11.80;99.90;;;;;;5064135;28;20456;-81
2023/11/08 11:18:04;;;;;;;1.10;1.00;;;11.80;99.90;;;;;;5072414;28;20439;-81
2023/11/08 11:20:36;;;;;;;1.07;0.77;;;11.90;99.90;;;;;;5074121;28;20595;-81
2023/11/08 11:23:04;;;;;;;1.47;1.37;;;11.80;99.90;;;;;;5072350;28;20434;-81
2023/11/08 11:25:48;;;;;;;0.50;0.40;;;11.80;99.90;;;;;;5072495;28;20457;-81
2023/11/08 11:28:15;;;;;;;0.50;0.40;;;11.90;99.90;;;;;;5075018;28;20483;-83
2023/11/08 11:30:42;;;;;;;0.53;0.53;;;12.00;99.90;;;;;;5075118;28;20432;-81
2023/11/08 11:33:10;;;;;;;0.90;0.67;;;12.10;99.90;;;;;;5083974;28;20506;-82
2023/11/08 11:35:57;;;;;;;0.50;0.40;;;12.40;99.90;;;;;;5084395;28;20991;-82
2023/11/08 11:38:26;;;;;;;0.83;0.83;;;12.80;99.90;;;;;;5084360;28;20425;-81
2023/11/08 11:41:23;;;;;;;1.70;1.60;;;13.10;99.90;;;;;;5083343;28;20467;-80
2023/11/08 11:43:53;;;;;;;5.23;0.60;;;12.70;99.90;;;;;;5073929;28;20452;-81
2023/11/08 11:46:23;;;;;;;0.50;0.40;;;12.50;99.90;;;;;;5076869;28;20449;-82
2023/11/08 11:49:09;;;;;;;0.50;0.40;;;12.30;99.90;;;;;;5080314;28;20476;-81
2023/11/08 11:51:41;;;;;;;0.50;0.40;;;12.40;99.90;;;;;;5064021;28;20468;-81
2023/11/08 11:54:08;;;;;;;2.30;1.70;;;12.40;99.90;;;;;;5062621;28;20433;-82
2023/11/08 11:56:35;;;;;;;0.60;0.60;;;12.50;99.90;;;;;;5071081;28;20440;-79
2023/11/08 11:59:02;;;;;;;1.13;1.00;;;12.30;99.90;;;;;;5062590;28;20468;-81
2023/11/08 12:01:29;;;;;;;1.17;0.60;;;12.20;99.90;;;;;;5079205;28;20436;-81
2023/11/08 12:03:58;;;;;;;0.50;0.40;;;12.10;99.90;;;;;;5071501;28;20433;-80
2023/11/08 12:06:28;;;;;;;0.67;0.57;;;12.00;99.90;;;;;;5061456;28;20457;-82
2023/11/08 12:08:55;;;;;;;7.57;0.90;;;12.10;99.90;;;;;;5062340;28;20481;-81
2023/11/08 12:11:22;;;;;;;0.60;0.60;;;12.10;99.90;;;;;;5069572;28;20472;-81
2023/11/08 12:13:51;;;;;;;0.60;0.50;;;12.20;99.90;;;;;;5079662;28;20436;-82
2023/11/08 12:16:18;;;;;;;1.33;1.23;;;12.20;99.90;;;;;;5061805;28;20517;-82
2023/11/08 12:18:46;;;;;;;1.80;0.57;;;12.20;99.90;;;;;;5063394;28;20509;-81
2023/11/08 12:21:14;;;;;;;0.50;0.43;;;12.10;99.90;;;;;;5063232;28;20434;-82
2023/11/08 12:23:44;;;;;;;4.50;1.37;;;12.10;99.90;;;;;;5062290;28;20817;-80
2023/11/08 12:26:12;;;;;;;0.50;0.50;;;12.20;99.90;;;;;;5062747;28;20456;-81
2023/11/08 12:28:40;;;;;;;1.73;0.57;;;12.20;99.90;;;;;;5070409;28;20843;-82
2023/11/08 12:31:08;;;;;;;1.23;0.70;;;12.20;99.90;;;;;;5061727;28;20480;-81
2023/11/08 12:33:35;;;;;;;2.67;0.50;;;12.20;99.90;;;;;;5068876;28;20473;-81
2023/11/08 12:36:04;;;;;;;0.50;0.50;;;12.10;99.90;;;;;;5074246;28;20539;-82
2023/11/08 12:38:34;;;;;;;0.50;0.40;;;11.90;99.90;;;;;;5082037;28;20441;-82
2023/11/08 12:41:04;;;;;;;0.77;0.50;;;11.70;99.90;;;;;;5071529;28;20449;-82
2023/11/08 12:43:31;;;;;;;0.50;0.40;;;11.70;99.90;;;;;;5062137;28;20433;-81
2023/11/08 12:46:03;;;;;;;4.43;1.00;;;11.80;99.90;;;;;;5060532;28;20464;-82
2023/11/08 12:48:30;;;;;;;2.10;0.83;;;11.90;99.90;;;;;;5068673;28;20469;-80
2023/11/08 12:51:02;;;;;;;0.50;0.40;;;11.80;99.90;;;;;;5064678;28;20497;-81
2023/11/08 12:53:31;;;;;;;1.73;1.57;;;11.90;99.90;;;;;;5082891;28;20433;-82
2023/11/08 12:56:03;;;;;;;0.90;0.50;;;12.00;99.90;;;;;;5070712;28;20461;-81